METAR Data
IDs: Format: Raw Decoded Include TAF

Data at: 0832 UTC 20 Sep 2018

PATE 200756Z AUTO 09004KT 10SM CLR 07/04 A3004 RMK AO2 SLP177 T00720039
PATE 200656Z AUTO 15003KT 10SM CLR 05/03 A3004 RMK AO2 SLP178 T00500033
PATE 200556Z AUTO 00000KT 10SM CLR 06/04 A3004 RMK AO2 SLP180 T00610044 10106 20056 55000
PATE 200456Z AUTO 27003KT 10SM CLR 08/07 A3004 RMK AO2 SLP179 T00830067
PATE 200356Z AUTO 32005KT 10SM CLR 09/07 A3004 RMK AO2 SLP179 T00890067
PATE 200256Z AUTO 30007KT 10SM FEW046 09/05 A3004 RMK AO2 SLP180 T00940050 56004
PATE 200156Z AUTO 29007KT 10SM CLR 10/06 A3005 RMK AO2 SLP180 T01000056
PATE 200056Z AUTO 35003KT 10SM CLR 10/04 A3005 RMK AO2 SLP180 T01000044
PATE 192356Z AUTO 00000KT 10SM CLR 10/04 A3006 RMK AO2 SLP182 T01000039 10100 20044 58004
PATE 192256Z AUTO 03005KT 10SM CLR 09/05 A3006 RMK AO2 SLP184 T00940050
PATE 192156Z AUTO 00000KT 10SM CLR 08/05 A3007 RMK AO2 SLP187 T00830050
PATE 192056Z AUTO 05007KT 10SM CLR 08/06 A3007 RMK AO2 SLP188 T00780061 53000
PATE 191956Z AUTO 05005KT 10SM SCT022 07/06 A3007 RMK AO2 SLP187 T00720056
PATE 191929Z AUTO 02003KT 10SM BKN022 OVC085 07/06 A3007 RMK AO2
PATE 191856Z AUTO 15003KT 10SM FEW070 SCT090 07/06 A3007 RMK AO2 SLP187 T00720056
PATE 191756Z AUTO 17005KT 10SM FEW065 BKN090 04/04 A3007 RMK AO2 SLP188 60001 T00440039 10067 20039 53002
PATE 191735Z AUTO 14005KT 10SM SCT029 BKN065 OVC090 05/04 A3007 RMK AO2
PATE 191656Z AUTO 16005KT 10SM BKN025 OVC090 05/04 A3006 RMK AO2 SLP186 T00500039
PATE 191644Z AUTO 17004KT 10SM BKN025 BKN090 04/04 A3006 RMK AO2
PATE 191609Z AUTO 16006KT 10SM SCT017 04/03 A3006 RMK AO2
PATE 191556Z AUTO 16006KT 10SM BKN017 04/04 A3006 RMK AO2 SLP186 T00440039
PATE 191537Z AUTO 15005KT 10SM BKN017 04/04 A3006 RMK AO2
PATE 191456Z AUTO 14007KT 10SM FEW024 BKN041 05/04 A3006 RMK AO2 SLP185 60001 T00500039 56002
PATE 191454Z AUTO 14006KT 10SM SCT024 BKN041 05/04 A3006 RMK AO2
PATE 191429Z AUTO 15006KT 10SM BKN024 BKN037 OVC050 06/04 A3006 RMK AO2
PATE 191356Z AUTO 14007KT 10SM FEW032 SCT046 BKN110 06/04 A3006 RMK AO2 RAE40 SLP185 P0000 T00560044
PATE 191343Z AUTO 14007KT 10SM SCT012 SCT033 BKN110 06/04 A3006 RMK AO2 RAE40 P0000
PATE 191319Z AUTO 14005KT 10SM BKN014 OVC100 06/05 A3007 RMK AO2 RAE08 P0000
PATE 191256Z AUTO 14008KT 10SM -RA FEW017 BKN046 OVC100 06/05 A3007 RMK AO2 RAB30 SLP187 P0001 T00610050
PATE 191156Z AUTO 14009KT 10SM FEW033 BKN095 07/06 A3008 RMK AO2 RAE1059 SLP189 P0000 60002 70006 T00670056 10072 20061 58002
PATE 191127Z AUTO 15008KT 10SM SCT013 SCT023 OVC033 07/06 A3008 RMK AO2 RAE1059 P0000
PATE 191118Z AUTO 15008KT 10SM BKN013 BKN021 OVC035 07/06 A3008 RMK AO2 RAE1059 P0000
PATE 191056Z AUTO 14005KT 10SM -RA BKN015 OVC050 07/06 A3008 RMK AO2 SLP191 P0001 T00670056
PATE 191051Z AUTO 14005KT 10SM -RA BKN015 BKN043 OVC055 07/06 A3008 RMK AO2 P0001
PATE 190956Z AUTO 13008KT 10SM -RA FEW038 OVC050 07/06 A3008 RMK AO2 RAB06 SLP191 P0000 T00670056
PATE 190856Z AUTO 22005KT 10SM BKN039 BKN050 BKN100 07/06 A3009 RMK AO2 RAE18 SLP194 P0001 60001 T00670056 400940050 56006
PATE 190842Z AUTO 19004KT 10SM SCT025 BKN041 BKN075 06/06 A3009 RMK AO2 RAE18 P0001
PATE 190822Z AUTO 19007KT 10SM FEW021 BKN025 OVC040 07/06 A3009 RMK AO2 RAE18 P0001
PATE 190756Z AUTO 19010KT 10SM -RA FEW041 OVC065 07/06 A3009 RMK AO2 RAB55 SLP195 P0000 T00720056
PATE 190656Z AUTO 22009KT 10SM FEW120 07/05 A3010 RMK AO2 SLP199 T00670050
PATE 190556Z AUTO 21009KT 10SM SCT120 07/06 A3011 RMK AO2 SLP201 T00720056 10094 20067 56003
PATE 190456Z AUTO 22011KT 10SM CLR 08/06 A3011 RMK AO2 SLP203 T00780056
PATE 190356Z AUTO 22013KT 10SM BKN120 09/06 A3011 RMK AO2 SLP200 T00890056
PATE 190256Z AUTO 22013KT 10SM FEW050 09/05 A3012 RMK AO2 SLP203 T00890050 58006
PATE 190156Z AUTO 23014KT 10SM CLR 09/06 A3012 RMK AO2 SLP205 T00940056
PATE 190056Z AUTO 24015KT 10SM FEW025 BKN048 BKN090 09/06 A3013 RMK AO2 SLP208 T00940056
PATE 182356Z AUTO 21013KT 10SM BKN085 09/06 A3014 RMK AO2 SLP209 60004 T00940056 10094 20061 58001
PATE 182325Z AUTO 23015KT 10SM FEW017 SCT026 SCT045 09/06 A3014 RMK AO2
PATE 182304Z AUTO 23015KT 10SM SCT015 BKN021 BKN026 09/06 A3014 RMK AO2
PATE 182256Z AUTO 21015KT 10SM SCT013 09/06 A3014 RMK AO2 SLP210 T00940061
PATE 182232Z AUTO 22014KT 10SM SCT013 SCT018 09/07 A3014 RMK AO2
PATE 182156Z AUTO 22014G17KT 10SM BKN011 OVC018 09/07 A3014 RMK AO2 RAE08 SLP213 P0000 T00890067
PATE 182149Z AUTO 21010KT 10SM BKN011 BKN018 OVC047 09/07 A3014 RMK AO2 RAE08 P0000
PATE 182142Z AUTO 20012KT 10SM SCT011 BKN018 OVC047 09/07 A3014 RMK AO2 RAE08 P0000
PATE 182128Z AUTO 22013KT 10SM BKN013 OVC047 09/07 A3014 RMK AO2 RAE08 P0000
PATE 182122Z AUTO 22016KT 10SM SCT011 BKN035 OVC047 09/07 A3014 RMK AO2 RAE08 P0000
PATE 182105Z AUTO 23014KT 10SM -RA SCT011 BKN014 OVC035 09/07 A3014 RMK AO2 P0000
PATE 182056Z AUTO 22014KT 5SM -RA BR FEW008 BKN037 OVC046 08/07 A3014 RMK AO2 RAE07B43 SLP210 P0003 60004 T00830072 56002